Time;durP1;ratioP1;P1;durP2;ratioP2;P2;SDS_P1;SDS_P2;PMS_P1;PMS_P2;Temp;Humidity;BMP_temperature;BMP_pressure;BME280_temperature;BME280_humidity;BME280_pressure;Samples;Min_cycle;Max_cycle;Signal;HPM_P1;HPM_P2
2022/07/04 00:01:09;;;;;;;13.15;5.82;;;;;;;;;;4990227;28;20030;-68
2022/07/04 00:03:34;;;;;;;9.00;5.65;;;;;;;;;;4992332;28;20488;-70
2022/07/04 00:06:00;;;;;;;11.73;5.50;;;;;;;;;;4992619;28;20089;-68
2022/07/04 00:08:26;;;;;;;11.50;4.75;;;;;;;;;;4991674;28;20031;-68
2022/07/04 00:10:52;;;;;;;10.07;5.53;;;;;;;;;;4992742;28;20125;-71
2022/07/04 00:13:18;;;;;;;10.35;5.18;;;;;;;;;;4992785;28;20026;-69
2022/07/04 00:15:43;;;;;;;10.43;5.55;;;;;;;;;;4992343;28;20085;-69
2022/07/04 00:18:09;;;;;;;8.80;5.72;;;;;;;;;;4991808;28;20026;-68
2022/07/04 00:20:35;;;;;;;18.83;10.73;;;;;;;;;;4990954;28;20047;-69
2022/07/04 00:23:01;;;;;;;17.30;8.40;;;;;;;;;;4972350;28;20027;-69
2022/07/04 00:25:27;;;;;;;12.57;6.65;;;;;;;;;;4977551;28;20122;-69
2022/07/04 00:27:53;;;;;;;12.23;5.57;;;;;;;;;;4990363;28;20475;-67
2022/07/04 00:30:20;;;;;;;9.70;5.90;;;;;;;;;;4975025;28;20081;-68
2022/07/04 00:32:46;;;;;;;10.35;5.07;;;;;;;;;;4991343;28;20038;-67
2022/07/04 00:35:12;;;;;;;12.82;5.63;;;;;;;;;;4992608;28;20386;-66
2022/07/04 00:37:37;;;;;;;11.02;5.20;;;;;;;;;;4991932;28;20388;-70
2022/07/04 00:40:04;;;;;;;10.93;4.38;;;;;;;;;;4992365;28;20069;-67
2022/07/04 00:42:30;;;;;;;12.48;4.03;;;;;;;;;;4991674;28;20061;-67
2022/07/04 00:44:56;;;;;;;8.73;4.80;;;;;;;;;;4992581;28;20043;-66
2022/07/04 00:47:22;;;;;;;7.32;4.47;;;;;;;;;;4992069;28;20173;-68
2022/07/04 00:49:48;;;;;;;9.38;4.30;;;;;;;;;;4992688;28;20520;-68
2022/07/04 00:52:14;;;;;;;8.52;4.00;;;;;;;;;;4991712;28;20022;-70
2022/07/04 00:54:40;;;;;;;10.57;4.38;;;;;;;;;;4974624;28;20481;-66
2022/07/04 00:57:06;;;;;;;11.35;5.03;;;;;;;;;;4991508;28;20038;-66
2022/07/04 00:59:32;;;;;;;17.02;4.43;;;;;;;;;;4992052;28;20076;-66
2022/07/04 01:01:58;;;;;;;10.07;4.45;;;;;;;;;;4992024;28;20049;-66
2022/07/04 01:04:24;;;;;;;7.47;3.97;;;;;;;;;;4992115;28;20081;-67
2022/07/04 01:06:50;;;;;;;14.63;5.28;;;;;;;;;;4992090;28;20487;-67
2022/07/04 01:09:16;;;;;;;13.30;3.78;;;;;;;;;;4991849;28;20046;-66
2022/07/04 01:11:42;;;;;;;9.40;4.22;;;;;;;;;;4992062;28;20027;-66
2022/07/04 01:14:08;;;;;;;10.15;3.95;;;;;;;;;;4991705;28;20093;-67
2022/07/04 01:16:34;;;;;;;8.95;4.20;;;;;;;;;;4991864;28;20015;-65
2022/07/04 01:19:00;;;;;;;9.73;3.95;;;;;;;;;;4974112;28;20101;-67
2022/07/04 01:21:26;;;;;;;7.90;3.83;;;;;;;;;;4992162;28;20054;-67
2022/07/04 01:23:52;;;;;;;8.35;4.18;;;;;;;;;;4991893;28;20049;-67
2022/07/04 01:26:18;;;;;;;7.78;3.80;;;;;;;;;;4990953;28;20041;-69
2022/07/04 01:28:44;;;;;;;8.27;3.53;;;;;;;;;;4991533;28;20053;-70
2022/07/04 01:31:10;;;;;;;5.38;3.75;;;;;;;;;;4991761;28;20022;-66
2022/07/04 01:33:36;;;;;;;8.40;4.18;;;;;;;;;;4991188;28;20108;-67
2022/07/04 01:36:02;;;;;;;8.07;3.88;;;;;;;;;;4991835;28;20125;-68
2022/07/04 01:38:28;;;;;;;9.05;3.80;;;;;;;;;;4991468;28;20085;-68
2022/07/04 01:40:54;;;;;;;8.80;4.35;;;;;;;;;;4991170;28;20030;-70
2022/07/04 01:43:19;;;;;;;8.73;3.83;;;;;;;;;;4991495;28;20054;-66
2022/07/04 01:45:45;;;;;;;6.93;3.67;;;;;;;;;;4992074;28;20032;-68
2022/07/04 01:48:12;;;;;;;5.82;3.50;;;;;;;;;;4991323;28;20047;-67
2022/07/04 01:50:39;;;;;;;7.43;3.67;;;;;;;;;;4991997;28;20053;-67
2022/07/04 01:53:05;;;;;;;8.25;3.65;;;;;;;;;;4991239;28;20066;-67
2022/07/04 01:55:32;;;;;;;6.65;3.85;;;;;;;;;;4994502;28;20038;-67
2022/07/04 01:57:58;;;;;;;4.65;3.45;;;;;;;;;;4995089;28;20038;-69
2022/07/04 02:03:09;;;;;;;6.68;4.00;;;;;;;;;;4994866;28;20042;-68
2022/07/04 02:05:37;;;;;;;4.72;3.85;;;;;;;;;;4988262;28;20085;-67
2022/07/04 02:08:04;;;;;;;8.40;4.03;;;;;;;;;;4992338;28;20080;-67
2022/07/04 02:10:30;;;;;;;7.35;4.20;;;;;;;;;;4995231;28;20023;-68
2022/07/04 02:13:02;;;;;;;9.60;4.22;;;;;;;;;;4994772;28;20045;-68
2022/07/04 02:15:45;;;;;;;5.40;3.75;;;;;;;;;;4995023;28;20058;-68
2022/07/04 02:18:11;;;;;;;7.53;4.28;;;;;;;;;;4993466;28;20074;-68
2022/07/04 02:20:37;;;;;;;7.53;4.53;;;;;;;;;;4991041;28;20503;-69
2022/07/04 02:23:08;;;;;;;7.90;4.30;;;;;;;;;;4994656;28;20403;-70
2022/07/04 02:25:34;;;;;;;6.78;4.07;;;;;;;;;;4994499;28;20097;-68
2022/07/04 02:28:00;;;;;;;6.72;3.85;;;;;;;;;;4994795;28;20038;-70
2022/07/04 02:30:26;;;;;;;6.32;4.28;;;;;;;;;;4994886;28;20081;-68
2022/07/04 02:32:52;;;;;;;6.68;4.10;;;;;;;;;;4994648;28;20408;-69
2022/07/04 02:35:18;;;;;;;12.23;4.30;;;;;;;;;;4994629;28;20034;-70
2022/07/04 02:37:44;;;;;;;7.55;5.28;;;;;;;;;;4995072;28;20026;-67
2022/07/04 02:40:10;;;;;;;10.63;4.68;;;;;;;;;;4994345;28;20034;-71
2022/07/04 02:42:36;;;;;;;10.95;5.20;;;;;;;;;;4994583;28;20126;-70
2022/07/04 02:45:03;;;;;;;11.15;4.57;;;;;;;;;;4994101;28;20054;-68
2022/07/04 02:47:29;;;;;;;11.85;4.82;;;;;;;;;;4994706;28;20069;-71
2022/07/04 02:49:55;;;;;;;8.38;4.28;;;;;;;;;;4994130;28;20066;-71
2022/07/04 02:52:21;;;;;;;5.20;4.25;;;;;;;;;;4994652;28;20026;-69
2022/07/04 02:54:48;;;;;;;12.07;4.75;;;;;;;;;;4994370;28;20045;-74
2022/07/04 02:57:14;;;;;;;11.95;5.03;;;;;;;;;;4994329;28;20397;-69
2022/07/04 02:59:40;;;;;;;8.07;4.25;;;;;;;;;;4993832;28;20034;-70
2022/07/04 03:02:06;;;;;;;8.95;4.30;;;;;;;;;;4994248;28;20046;-70
2022/07/04 03:04:31;;;;;;;7.30;4.10;;;;;;;;;;4993864;28;20038;-69
2022/07/04 03:06:57;;;;;;;6.80;4.22;;;;;;;;;;4993913;28;20040;-69
2022/07/04 03:09:26;;;;;;;9.93;4.50;;;;;;;;;;4993793;28;20034;-69
2022/07/04 03:11:52;;;;;;;10.93;4.88;;;;;;;;;;4994240;28;20108;-68
2022/07/04 03:14:18;;;;;;;6.38;3.88;;;;;;;;;;4992534;28;20062;-65
2022/07/04 03:16:44;;;;;;;6.70;3.85;;;;;;;;;;4993887;28;20030;-69
2022/07/04 03:19:10;;;;;;;6.75;3.90;;;;;;;;;;4985179;28;20038;-69
2022/07/04 03:21:35;;;;;;;7.10;4.10;;;;;;;;;;4973748;28;20060;-69
2022/07/04 03:24:01;;;;;;;6.47;3.85;;;;;;;;;;4974392;28;20038;-68
2022/07/04 03:26:32;;;;;;;7.00;3.58;;;;;;;;;;4974409;28;20035;-68
2022/07/04 03:28:59;;;;;;;7.00;4.20;;;;;;;;;;4957106;28;20042;-67
2022/07/04 03:31:26;;;;;;;6.68;4.10;;;;;;;;;;4973882;28;20372;-69
2022/07/04 03:33:52;;;;;;;7.90;3.97;;;;;;;;;;4974035;28;20034;-68
2022/07/04 03:36:19;;;;;;;6.18;4.22;;;;;;;;;;4974033;28;20031;-70
2022/07/04 03:38:45;;;;;;;7.07;3.83;;;;;;;;;;4974296;28;20094;-68
2022/07/04 03:41:11;;;;;;;10.95;4.68;;;;;;;;;;4973921;28;20083;-68
2022/07/04 03:43:37;;;;;;;8.35;4.20;;;;;;;;;;4973726;28;20469;-67
2022/07/04 03:46:03;;;;;;;5.75;4.00;;;;;;;;;;4973703;28;20161;-69
2022/07/04 03:48:29;;;;;;;7.85;3.97;;;;;;;;;;4973963;28;20039;-69
2022/07/04 03:50:55;;;;;;;17.90;6.07;;;;;;;;;;4973533;28;20474;-69
2022/07/04 03:53:21;;;;;;;13.75;4.45;;;;;;;;;;4973654;28;20096;-69
2022/07/04 03:55:47;;;;;;;15.15;5.50;;;;;;;;;;4973666;28;20596;-74
2022/07/04 03:58:13;;;;;;;14.63;5.70;;;;;;;;;;4973642;28;20142;-69
2022/07/04 04:00:39;;;;;;;11.15;5.32;;;;;;;;;;4973580;28;20414;-68
2022/07/04 04:05:26;;;;;;;15.48;5.70;;;;;;;;;;4973492;28;20038;-70
2022/07/04 04:05:54;;;;;;;8.88;5.05;;;;;;;;;;4974711;28;20446;-71
2022/07/04 04:08:20;;;;;;;12.48;5.15;;;;;;;;;;4974870;28;20042;-71
2022/07/04 04:10:46;;;;;;;14.20;5.55;;;;;;;;;;4974528;28;20046;-69
2022/07/04 04:13:12;;;;;;;9.25;4.50;;;;;;;;;;4987219;28;20036;-70
2022/07/04 04:15:38;;;;;;;8.55;4.47;;;;;;;;;;4994022;28;20034;-72
2022/07/04 04:18:03;;;;;;;9.07;4.78;;;;;;;;;;4993245;28;20114;-69
2022/07/04 04:20:29;;;;;;;9.95;4.82;;;;;;;;;;4994081;28;20027;-74
2022/07/04 04:22:55;;;;;;;8.52;4.47;;;;;;;;;;4993967;28;20030;-69
2022/07/04 04:25:21;;;;;;;15.95;4.63;;;;;;;;;;4994119;28;20042;-72
2022/07/04 04:27:47;;;;;;;12.63;3.78;;;;;;;;;;4993965;28;20023;-71
2022/07/04 04:30:13;;;;;;;7.88;4.40;;;;;;;;;;4993779;28;20042;-70
2022/07/04 04:32:38;;;;;;;6.50;4.60;;;;;;;;;;4993528;28;20032;-72
2022/07/04 04:35:05;;;;;;;10.25;4.40;;;;;;;;;;4993513;28;20034;-70
2022/07/04 04:37:31;;;;;;;10.50;4.25;;;;;;;;;;4993764;28;20092;-71
2022/07/04 04:39:56;;;;;;;8.38;4.65;;;;;;;;;;4993549;28;20030;-69
2022/07/04 04:42:22;;;;;;;9.70;4.20;;;;;;;;;;4993637;28;20381;-69
2022/07/04 04:44:48;;;;;;;13.93;4.15;;;;;;;;;;4993690;28;20034;-68
2022/07/04 04:47:14;;;;;;;7.90;4.30;;;;;;;;;;4993504;28;20038;-67
2022/07/04 04:49:40;;;;;;;14.45;4.57;;;;;;;;;;4993595;28;20116;-69
2022/07/04 04:52:06;;;;;;;9.43;4.28;;;;;;;;;;4993651;28;20022;-70
2022/07/04 04:54:33;;;;;;;16.88;4.57;;;;;;;;;;4993460;28;20042;-68
2022/07/04 04:56:59;;;;;;;7.45;3.95;;;;;;;;;;4992943;28;20073;-69
2022/07/04 04:59:27;;;;;;;9.27;4.40;;;;;;;;;;4993079;28;20478;-72
2022/07/04 05:01:52;;;;;;;13.05;4.57;;;;;;;;;;4992109;28;20022;-70
2022/07/04 05:04:18;;;;;;;15.55;4.22;;;;;;;;;;4992857;28;20053;-69
2022/07/04 05:06:44;;;;;;;9.25;4.40;;;;;;;;;;4993140;28;20025;-68
2022/07/04 05:09:10;;;;;;;15.13;4.88;;;;;;;;;;4992700;28;20037;-70
2022/07/04 05:11:36;;;;;;;10.27;4.20;;;;;;;;;;4992449;28;20018;-70
2022/07/04 05:14:02;;;;;;;9.93;4.25;;;;;;;;;;4992780;28;20552;-69
2022/07/04 05:16:27;;;;;;;16.73;4.63;;;;;;;;;;4992819;28;20061;-68
2022/07/04 05:18:53;;;;;;;8.82;3.72;;;;;;;;;;4992908;28;20089;-69
2022/07/04 05:21:19;;;;;;;8.40;3.88;;;;;;;;;;4993210;28;20085;-69
2022/07/04 05:23:45;;;;;;;8.40;3.50;;;;;;;;;;4992834;28;20039;-69
2022/07/04 05:26:11;;;;;;;10.82;3.88;;;;;;;;;;4993072;28;20046;-69
2022/07/04 05:28:37;;;;;;;8.77;3.53;;;;;;;;;;4995416;28;20085;-70
2022/07/04 05:31:03;;;;;;;11.40;3.90;;;;;;;;;;4996492;28;20030;-69
2022/07/04 05:33:28;;;;;;;15.40;4.13;;;;;;;;;;4999252;28;20039;-73
2022/07/04 05:35:54;;;;;;;8.63;3.38;;;;;;;;;;4999460;28;20026;-71
2022/07/04 05:38:20;;;;;;;5.88;3.17;;;;;;;;;;4999284;28;20037;-70
2022/07/04 05:40:46;;;;;;;8.07;3.30;;;;;;;;;;4999393;28;20022;-70
2022/07/04 05:43:12;;;;;;;10.30;3.50;;;;;;;;;;4999007;28;20124;-68
2022/07/04 05:45:37;;;;;;;4.03;3.08;;;;;;;;;;4999108;28;20515;-71
2022/07/04 05:48:03;;;;;;;5.65;3.15;;;;;;;;;;4999232;28;20393;-74
2022/07/04 05:50:29;;;;;;;7.05;3.40;;;;;;;;;;4998720;28;20025;-74
2022/07/04 05:52:55;;;;;;;5.68;3.30;;;;;;;;;;4990244;28;20038;-72
2022/07/04 05:55:21;;;;;;;5.90;3.25;;;;;;;;;;4979607;28;20058;-71
2022/07/04 05:57:47;;;;;;;4.68;3.10;;;;;;;;;;4979350;28;20082;-71
2022/07/04 06:00:13;;;;;;;9.98;3.30;;;;;;;;;;4962071;28;20034;-71
2022/07/04 06:02:41;;;;;;;10.48;3.30;;;;;;;;;;4979762;28;20058;-68
2022/07/04 06:05:07;;;;;;;8.60;4.10;;;;;;;;;;4994245;28;20027;-68
2022/07/04 06:07:33;;;;;;;11.25;3.50;;;;;;;;;;4998535;28;20042;-73
2022/07/04 06:09:59;;;;;;;8.27;3.60;;;;;;;;;;4998951;28;20053;-72
2022/07/04 06:12:25;;;;;;;9.80;3.65;;;;;;;;;;4999240;28;20030;-71
2022/07/04 06:14:51;;;;;;;9.10;3.22;;;;;;;;;;4992979;28;20117;-70
2022/07/04 06:17:16;;;;;;;7.07;3.28;;;;;;;;;;4980754;28;20081;-71
2022/07/04 06:19:42;;;;;;;8.18;2.80;;;;;;;;;;4979541;28;20501;-72
2022/07/04 06:22:08;;;;;;;7.70;2.97;;;;;;;;;;4991288;28;20527;-68
2022/07/04 06:24:34;;;;;;;7.38;2.90;;;;;;;;;;4999161;28;20117;-69
2022/07/04 06:27:00;;;;;;;9.85;3.15;;;;;;;;;;4992516;28;20042;-67
2022/07/04 06:29:26;;;;;;;8.95;2.47;;;;;;;;;;5008680;28;20041;-68
2022/07/04 06:31:51;;;;;;;7.55;3.05;;;;;;;;;;5011572;28;20045;-68
2022/07/04 06:37:02;;;;;;;5.85;2.95;;;;;;;;;;4997880;28;20026;-71
2022/07/04 06:39:27;;;;;;;9.90;3.70;;;;;;;;;;4997702;28;20030;-69
2022/07/04 06:41:53;;;;;;;6.97;2.80;;;;;;;;;;4994684;28;20050;-69
2022/07/04 06:44:19;;;;;;;7.65;3.17;;;;;;;;;;4994137;28;20153;-67
2022/07/04 06:46:45;;;;;;;7.55;2.80;;;;;;;;;;4982728;28;20089;-69
2022/07/04 06:49:11;;;;;;;4.30;2.80;;;;;;;;;;4979319;28;20038;-69
2022/07/04 06:51:37;;;;;;;7.65;2.95;;;;;;;;;;4976033;28;20118;-69
2022/07/04 06:54:03;;;;;;;7.68;2.72;;;;;;;;;;4975401;28;20066;-69
2022/07/04 06:56:29;;;;;;;6.20;3.00;;;;;;;;;;4975293;28;20051;-67
2022/07/04 06:58:55;;;;;;;7.85;3.15;;;;;;;;;;4975605;28;20035;-69
2022/07/04 07:01:22;;;;;;;8.27;2.92;;;;;;;;;;4976174;28;20034;-66
2022/07/04 07:03:47;;;;;;;6.30;2.88;;;;;;;;;;4993677;28;20026;-67
2022/07/04 07:06:13;;;;;;;8.75;3.13;;;;;;;;;;5000792;28;20088;-68
2022/07/04 07:08:39;;;;;;;5.65;3.58;;;;;;;;;;4996134;28;20026;-68
2022/07/04 07:11:14;;;;;;;6.30;3.30;;;;;;;;;;5014140;28;20033;-69
2022/07/04 07:13:45;;;;;;;7.03;3.50;;;;;;;;;;5000287;28;20437;-74
2022/07/04 07:16:12;;;;;;;10.88;3.53;;;;;;;;;;4978979;28;20029;-74
2022/07/04 07:18:37;;;;;;;7.38;3.42;;;;;;;;;;4981761;28;20111;-74
2022/07/04 07:21:04;;;;;;;6.80;3.00;;;;;;;;;;4984436;28;20109;-75
2022/07/04 07:23:30;;;;;;;5.15;2.80;;;;;;;;;;4993772;28;20031;-75
2022/07/04 07:25:55;;;;;;;7.30;3.00;;;;;;;;;;4993440;28;20105;-78
2022/07/04 07:28:21;;;;;;;11.70;2.90;;;;;;;;;;4978383;28;20023;-76
2022/07/04 07:30:47;;;;;;;16.15;3.78;;;;;;;;;;4983748;28;20038;-76
2022/07/04 07:33:13;;;;;;;8.75;3.55;;;;;;;;;;4991438;28;20038;-77
2022/07/04 07:35:39;;;;;;;14.32;10.50;;;;;;;;;;4985080;28;20125;-75
2022/07/04 07:38:06;;;;;;;7.78;3.47;;;;;;;;;;4992992;28;20026;-76
2022/07/04 07:40:32;;;;;;;10.30;3.15;;;;;;;;;;4988015;28;20042;-76
2022/07/04 07:42:58;;;;;;;4.72;2.80;;;;;;;;;;4975822;28;20031;-74
2022/07/04 07:45:23;;;;;;;4.97;2.80;;;;;;;;;;4988905;28;20062;-74
2022/07/04 07:47:49;;;;;;;11.73;3.70;;;;;;;;;;4973114;28;20054;-74
2022/07/04 07:50:15;;;;;;;7.97;3.03;;;;;;;;;;4987472;28;20049;-74
2022/07/04 07:52:41;;;;;;;6.47;3.05;;;;;;;;;;4991310;28;20484;-75
2022/07/04 07:55:07;;;;;;;5.28;3.00;;;;;;;;;;4992762;28;20030;-75
2022/07/04 07:57:33;;;;;;;12.27;3.88;;;;;;;;;;4992393;28;20104;-74
2022/07/04 07:59:59;;;;;;;9.50;3.42;;;;;;;;;;4992647;28;20092;-76
2022/07/04 08:05:11;;;;;;;6.57;3.53;;;;;;;;;;4991618;28;20030;-76
2022/07/04 08:07:37;;;;;;;7.28;3.25;;;;;;;;;;4992582;28;20477;-77
2022/07/04 08:10:04;;;;;;;5.32;3.28;;;;;;;;;;4992586;28;20035;-77
2022/07/04 08:12:30;;;;;;;12.18;3.28;;;;;;;;;;4992205;28;20466;-76
2022/07/04 08:14:57;;;;;;;6.38;3.30;;;;;;;;;;4992568;28;20089;-74
2022/07/04 08:17:22;;;;;;;11.32;3.13;;;;;;;;;;4989820;28;20077;-73
2022/07/04 08:19:48;;;;;;;9.13;3.53;;;;;;;;;;4972498;28;20035;-73
2022/07/04 08:22:14;;;;;;;5.97;2.70;;;;;;;;;;4973293;28;20027;-74
2022/07/04 08:24:40;;;;;;;6.55;2.90;;;;;;;;;;4973163;28;20031;-75
2022/07/04 08:27:06;;;;;;;5.32;3.10;;;;;;;;;;4972176;28;20375;-74
2022/07/04 08:29:32;;;;;;;7.03;2.97;;;;;;;;;;4973171;28;20085;-74
2022/07/04 08:31:58;;;;;;;6.93;2.97;;;;;;;;;;4972569;28;20478;-75
2022/07/04 08:34:24;;;;;;;4.85;2.97;;;;;;;;;;4975094;28;20039;-74
2022/07/04 08:36:50;;;;;;;8.90;3.50;;;;;;;;;;4981045;28;20046;-73
2022/07/04 08:39:16;;;;;;;4.40;3.22;;;;;;;;;;4981909;28;20657;-74
2022/07/04 08:41:42;;;;;;;7.22;3.50;;;;;;;;;;4986789;28;20069;-75
2022/07/04 08:44:10;;;;;;;8.10;3.20;;;;;;;;;;4985966;28;20038;-76
2022/07/04 08:46:40;;;;;;;7.57;3.60;;;;;;;;;;4981224;28;20034;-75
2022/07/04 08:49:14;;;;;;;6.00;2.88;;;;;;;;;;4984941;28;20022;-76
2022/07/04 08:51:39;;;;;;;4.35;3.10;;;;;;;;;;4986667;28;20053;-77
2022/07/04 08:58:25;;;;;;;4.68;2.95;;;;;;;;;;4991585;28;20026;-77
2022/07/04 08:59:45;;;;;;;5.60;4.50;;;;;;;;;;4978270;28;20496;-75
2022/07/04 09:02:13;;;;;;;9.73;3.03;;;;;;;;;;4991104;28;20072;-73
2022/07/04 09:04:40;;;;;;;4.85;2.80;;;;;;;;;;4990982;28;20049;-73
2022/07/04 09:07:06;;;;;;;4.90;3.35;;;;;;;;;;4989042;28;20042;-73
2022/07/04 09:09:33;;;;;;;4.80;2.97;;;;;;;;;;4979511;28;20042;-73
2022/07/04 09:11:59;;;;;;;8.10;3.50;;;;;;;;;;4973214;28;20144;-73
2022/07/04 09:14:25;;;;;;;9.38;3.38;;;;;;;;;;4985470;28;20118;-72
2022/07/04 09:16:53;;;;;;;10.18;3.53;;;;;;;;;;4978430;28;20038;-75
2022/07/04 09:19:21;;;;;;;7.15;3.20;;;;;;;;;;4970326;28;20026;-73
2022/07/04 09:21:48;;;;;;;6.03;3.25;;;;;;;;;;4977127;28;20393;-72
2022/07/04 09:24:14;;;;;;;10.70;3.47;;;;;;;;;;4981068;28;20030;-74
2022/07/04 09:26:49;;;;;;;5.95;3.17;;;;;;;;;;4989650;28;20485;-73
2022/07/04 09:29:15;;;;;;;7.70;3.00;;;;;;;;;;4987528;28;20050;-73
2022/07/04 09:31:41;;;;;;;9.65;3.38;;;;;;;;;;4990226;28;20030;-75
2022/07/04 09:34:07;;;;;;;8.02;3.08;;;;;;;;;;4985923;28;20571;-73
2022/07/04 09:36:44;;;;;;;5.15;3.63;;;;;;;;;;4972370;28;20027;-73
2022/07/04 09:39:21;;;;;;;7.15;3.10;;;;;;;;;;4984247;28;20425;-74
2022/07/04 09:41:55;;;;;;;9.95;3.35;;;;;;;;;;4989675;28;20046;-72
2022/07/04 09:44:23;;;;;;;4.70;2.60;;;;;;;;;;4991398;28;20121;-73
2022/07/04 09:46:49;;;;;;;4.60;2.70;;;;;;;;;;4991057;28;20491;-73
2022/07/04 09:49:16;;;;;;;8.07;2.80;;;;;;;;;;4991968;28;20039;-74
2022/07/04 09:51:47;;;;;;;5.55;3.20;;;;;;;;;;4991831;28;20106;-73
2022/07/04 09:54:31;;;;;;;8.83;2.63;;;;;;;;;;4991711;28;20030;-73
2022/07/04 09:57:02;;;;;;;9.93;3.50;;;;;;;;;;4990525;28;20042;-73
2022/07/04 09:59:29;;;;;;;7.18;2.50;;;;;;;;;;4985219;28;20035;-74
2022/07/04 10:02:08;;;;;;;3.72;2.33;;;;;;;;;;4988135;28;20034;-73
2022/07/04 10:04:48;;;;;;;5.80;3.05;;;;;;;;;;4990498;28;20035;-71
2022/07/04 10:07:30;;;;;;;5.70;3.17;;;;;;;;;;4990377;28;20038;-74
2022/07/04 10:09:56;;;;;;;;;;;;;;;;;;4992204;28;20042;-71
2022/07/04 10:12:28;;;;;;;6.03;2.85;;;;;;;;;;4991962;28;19913;-73
2022/07/04 10:14:55;;;;;;;6.68;2.85;;;;;;;;;;4992067;28;20117;-71
2022/07/04 10:17:22;;;;;;;7.50;3.10;;;;;;;;;;4995817;28;20389;-72
2022/07/04 10:19:51;;;;;;;5.00;2.70;;;;;;;;;;4995705;28;20034;-75
2022/07/04 10:22:19;;;;;;;7.60;3.20;;;;;;;;;;4995572;28;20022;-75
2022/07/04 10:24:44;;;;;;;9.63;3.00;;;;;;;;;;4995685;28;20500;-76
2022/07/04 10:27:11;;;;;;;9.13;2.70;;;;;;;;;;4995490;28;20040;-76
2022/07/04 10:29:38;;;;;;;8.30;2.92;;;;;;;;;;4995595;28;20030;-76
2022/07/04 10:32:06;;;;;;;6.90;2.83;;;;;;;;;;4995074;28;20026;-76
2022/07/04 10:34:41;;;;;;;5.15;2.80;;;;;;;;;;4978040;28;20118;-77
2022/07/04 10:37:08;;;;;;;6.47;2.90;;;;;;;;;;4995479;28;20034;-78
2022/07/04 10:39:33;;;;;;;6.30;2.80;;;;;;;;;;4995274;28;20084;-74
2022/07/04 10:42:01;;;;;;;7.47;3.20;;;;;;;;;;4977883;28;20401;-77
2022/07/04 10:44:34;;;;;;;7.30;2.70;;;;;;;;;;4995431;28;20022;-72
2022/07/04 10:47:00;;;;;;;6.07;3.22;;;;;;;;;;4995391;28;20034;-73
2022/07/04 10:49:28;;;;;;;8.07;3.30;;;;;;;;;;4995139;28;20117;-75
2022/07/04 10:52:11;;;;;;;5.97;3.20;;;;;;;;;;4994975;28;20053;-70
2022/07/04 10:54:39;;;;;;;9.23;3.03;;;;;;;;;;4995050;28;20030;-73
2022/07/04 10:57:14;;;;;;;10.25;4.10;;;;;;;;;;4994518;28;20436;-71
2022/07/04 10:59:42;;;;;;;8.77;3.38;;;;;;;;;;4994588;28;20043;-71
2022/07/04 11:02:11;;;;;;;5.10;2.92;;;;;;;;;;4994392;28;20035;-73
2022/07/04 11:05:06;;;;;;;5.82;3.00;;;;;;;;;;5001289;28;20026;-71
2022/07/04 11:07:39;;;;;;;5.47;3.10;;;;;;;;;;4989131;28;20046;-71
2022/07/04 11:10:12;;;;;;;8.07;3.90;;;;;;;;;;4993980;28;20396;-71
2022/07/04 11:12:53;;;;;;;;;;;;;;;;;;4994975;28;20038;-70
2022/07/04 11:15:40;;;;;;;5.40;3.00;;;;;;;;;;4989786;28;19926;-70
2022/07/04 11:18:14;;;;;;;6.65;2.95;;;;;;;;;;4967882;28;20050;-71
2022/07/04 11:20:47;;;;;;;5.70;3.00;;;;;;;;;;4973760;28;20065;-71
2022/07/04 11:23:15;;;;;;;8.85;3.13;;;;;;;;;;4974831;28;20041;-71
2022/07/04 11:25:46;;;;;;;6.43;2.90;;;;;;;;;;4974673;28;20291;-71
2022/07/04 11:28:22;;;;;;;5.80;3.00;;;;;;;;;;4973923;28;20050;-70
2022/07/04 11:31:00;;;;;;;6.88;3.15;;;;;;;;;;4974971;28;20042;-71
2022/07/04 11:33:29;;;;;;;5.35;2.80;;;;;;;;;;4974703;28;20081;-73
2022/07/04 11:36:06;;;;;;;3.78;2.80;;;;;;;;;;4974710;28;20062;-72
2022/07/04 11:38:48;;;;;;;5.35;3.45;;;;;;;;;;4974342;28;20392;-70
2022/07/04 11:47:18;;;;;;;9.07;3.15;;;;;;;;;;4991989;28;20034;-72
2022/07/04 11:49:50;;;;;;;4.60;3.05;;;;;;;;;;4977124;28;20043;-72
2022/07/04 11:52:20;;;;;;;7.07;3.07;;;;;;;;;;4994434;28;20050;-71
2022/07/04 11:54:47;;;;;;;5.47;3.38;;;;;;;;;;4994749;28;20161;-72
2022/07/04 11:57:13;;;;;;;5.50;3.08;;;;;;;;;;4993844;28;20137;-73
2022/07/04 11:59:39;;;;;;;5.47;2.97;;;;;;;;;;4991188;28;20170;-71
2022/07/04 12:02:13;;;;;;;5.53;2.92;;;;;;;;;;4996155;28;20053;-76
2022/07/04 12:04:41;;;;;;;6.00;3.22;;;;;;;;;;5013721;28;20037;-78
2022/07/04 12:07:19;;;;;;;4.88;3.22;;;;;;;;;;5013186;28;20029;-74
2022/07/04 12:09:46;;;;;;;5.40;3.20;;;;;;;;;;5013879;28;20042;-76
2022/07/04 12:12:14;;;;;;;5.60;3.10;;;;;;;;;;4977948;28;20023;-75
2022/07/04 12:14:56;;;;;;;7.00;3.30;;;;;;;;;;4974918;28;20039;-69
2022/07/04 12:17:22;;;;;;;8.32;3.30;;;;;;;;;;4974306;28;20413;-70
2022/07/04 12:19:58;;;;;;;4.90;3.17;;;;;;;;;;4974046;28;20026;-71
2022/07/04 12:22:37;;;;;;;6.07;3.47;;;;;;;;;;4974223;28;20374;-70
2022/07/04 12:25:05;;;;;;;5.80;4.22;;;;;;;;;;4991924;28;20026;-71
2022/07/04 12:27:31;;;;;;;9.38;3.60;;;;;;;;;;4993341;28;20038;-71
2022/07/04 12:29:59;;;;;;;6.28;3.22;;;;;;;;;;4993118;28;20034;-71
2022/07/04 12:32:43;;;;;;;6.65;2.90;;;;;;;;;;4993200;28;20105;-71
2022/07/04 12:35:09;;;;;;;3.22;2.63;;;;;;;;;;4993372;28;20536;-72
2022/07/04 12:37:35;;;;;;;7.78;3.17;;;;;;;;;;4992592;28;20102;-72
2022/07/04 12:40:08;;;;;;;7.45;3.15;;;;;;;;;;4993435;28;20413;-71
2022/07/04 12:42:34;;;;;;;5.68;2.83;;;;;;;;;;4993276;28;20393;-71
2022/07/04 12:45:06;;;;;;;4.15;2.63;;;;;;;;;;4993611;28;20025;-70
2022/07/04 12:47:32;;;;;;;5.85;3.10;;;;;;;;;;4993419;28;20504;-71
2022/07/04 12:49:58;;;;;;;6.75;3.03;;;;;;;;;;4978487;28;20027;-70
2022/07/04 12:52:27;;;;;;;4.93;3.10;;;;;;;;;;4973885;28;20531;-73
2022/07/04 12:55:05;;;;;;;7.07;3.00;;;;;;;;;;4981725;28;20153;-73
2022/07/04 12:57:31;;;;;;;8.00;2.70;;;;;;;;;;4993124;28;20488;-72
2022/07/04 12:59:57;;;;;;;8.15;3.10;;;;;;;;;;4984912;28;20027;-73
2022/07/04 13:02:22;;;;;;;6.22;2.92;;;;;;;;;;4977441;28;20406;-70
2022/07/04 13:04:48;;;;;;;3.08;2.40;;;;;;;;;;4971513;28;20033;-75
2022/07/04 13:07:16;;;;;;;6.35;2.85;;;;;;;;;;4971627;28;20085;-72
2022/07/04 13:09:44;;;;;;;4.85;2.65;;;;;;;;;;4971358;28;20030;-73
2022/07/04 13:12:24;;;;;;;5.38;2.50;;;;;;;;;;4971448;28;20367;-73
2022/07/04 13:14:58;;;;;;;5.20;2.65;;;;;;;;;;4970517;28;20041;-75
2022/07/04 13:17:25;;;;;;;8.20;2.80;;;;;;;;;;4971496;28;20532;-75
2022/07/04 13:19:55;;;;;;;9.38;2.63;;;;;;;;;;4971692;28;20490;-73
2022/07/04 13:22:23;;;;;;;6.75;2.70;;;;;;;;;;4971094;28;20568;-72
2022/07/04 13:24:51;;;;;;;5.93;2.70;;;;;;;;;;4971635;28;20097;-73
2022/07/04 13:27:17;;;;;;;5.85;2.60;;;;;;;;;;4971049;28;20053;-71
2022/07/04 13:29:43;;;;;;;4.93;2.92;;;;;;;;;;4985767;28;20034;-77
2022/07/04 13:32:10;;;;;;;4.68;2.80;;;;;;;;;;4990946;28;20097;-73
2022/07/04 13:34:36;;;;;;;9.00;2.60;;;;;;;;;;4985022;28;20073;-72
2022/07/04 13:37:03;;;;;;;4.18;2.72;;;;;;;;;;4984116;28;20397;-76
2022/07/04 13:39:29;;;;;;;7.05;2.25;;;;;;;;;;4983131;28;20022;-76
2022/07/04 13:41:55;;;;;;;5.55;2.50;;;;;;;;;;4991137;28;20085;-82
2022/07/04 13:44:21;;;;;;;5.93;2.78;;;;;;;;;;4990936;28;20251;-80
2022/07/04 13:46:47;;;;;;;6.80;2.70;;;;;;;;;;4991333;28;20515;-76
2022/07/04 13:49:13;;;;;;;4.20;2.35;;;;;;;;;;4991900;28;20030;-72
2022/07/04 13:51:42;;;;;;;5.18;2.50;;;;;;;;;;4994658;28;20050;-72
2022/07/04 13:54:09;;;;;;;6.43;2.58;;;;;;;;;;4988159;28;20030;-71
2022/07/04 13:56:35;;;;;;;5.43;2.38;;;;;;;;;;4992971;28;20046;-73
2022/07/04 13:59:02;;;;;;;10.63;2.45;;;;;;;;;;4975835;28;20092;-71
2022/07/04 14:01:28;;;;;;;4.45;2.45;;;;;;;;;;4976715;28;20031;-68
2022/07/04 14:03:54;;;;;;;5.40;2.47;;;;;;;;;;4976560;28;20027;-71
2022/07/04 14:06:20;;;;;;;6.30;2.40;;;;;;;;;;4982527;28;20035;-70
2022/07/04 14:08:46;;;;;;;5.15;2.35;;;;;;;;;;4977425;28;20027;-75
2022/07/04 14:11:11;;;;;;;3.95;2.22;;;;;;;;;;4987384;28;20061;-72
2022/07/04 14:13:39;;;;;;;4.13;2.20;;;;;;;;;;4963375;28;20478;-75
2022/07/04 14:16:06;;;;;;;3.42;2.63;;;;;;;;;;4986581;28;20117;-70
2022/07/04 14:18:35;;;;;;;4.22;2.30;;;;;;;;;;4989500;28;20034;-72
2022/07/04 14:21:01;;;;;;;4.70;2.30;;;;;;;;;;4984012;28;20393;-71
2022/07/04 14:23:42;;;;;;;6.03;2.30;;;;;;;;;;4976592;28;20054;-70
2022/07/04 14:26:10;;;;;;;3.22;2.28;;;;;;;;;;4976178;28;20050;-72
2022/07/04 14:28:37;;;;;;;2.50;1.90;;;;;;;;;;4985542;28;20505;-72
2022/07/04 14:31:03;;;;;;;7.38;2.38;;;;;;;;;;4995297;28;20041;-74
2022/07/04 14:33:29;;;;;;;5.43;2.60;;;;;;;;;;4995697;28;20023;-75
2022/07/04 14:35:55;;;;;;;5.93;2.85;;;;;;;;;;4995904;28;20158;-75
2022/07/04 14:38:21;;;;;;;5.82;2.47;;;;;;;;;;4995851;28;20485;-73
2022/07/04 14:40:49;;;;;;;4.18;2.15;;;;;;;;;;4996274;28;20062;-76
2022/07/04 14:43:19;;;;;;;5.43;2.58;;;;;;;;;;4995906;28;20030;-75
2022/07/04 14:45:46;;;;;;;4.45;2.35;;;;;;;;;;4974588;28;20034;-73
2022/07/04 14:48:13;;;;;;;6.18;2.47;;;;;;;;;;4993803;28;20041;-71
2022/07/04 14:50:40;;;;;;;4.93;2.40;;;;;;;;;;4993771;28;20069;-73
2022/07/04 14:53:05;;;;;;;5.80;2.42;;;;;;;;;;4991124;28;20033;-75
2022/07/04 14:55:31;;;;;;;7.25;2.70;;;;;;;;;;4982816;28;20043;-71
2022/07/04 14:57:57;;;;;;;8.85;2.35;;;;;;;;;;4984798;28;20480;-73
2022/07/04 15:00:23;;;;;;;4.90;2.10;;;;;;;;;;4976234;28;20136;-71